sensor_id;sensor_type;location;lat;lon;timestamp;P1;durP1;ratioP1;P2;durP2;ratioP2
33162;SDS011;29282;45.656;11.302;2023-07-29T00:01:35;0.60;;;0.60;;
33162;SDS011;29282;45.656;11.302;2023-07-29T00:04:01;0.68;;;0.68;;
33162;SDS011;29282;45.656;11.302;2023-07-29T00:06:27;1.02;;;0.70;;
33162;SDS011;29282;45.656;11.302;2023-07-29T00:08:52;0.60;;;0.60;;
33162;SDS011;29282;45.656;11.302;2023-07-29T00:11:18;0.93;;;0.85;;
33162;SDS011;29282;45.656;11.302;2023-07-29T00:13:43;0.70;;;0.70;;
33162;SDS011;29282;45.656;11.302;2023-07-29T00:16:09;1.25;;;0.80;;
33162;SDS011;29282;45.656;11.302;2023-07-29T00:18:35;0.50;;;0.50;;
33162;SDS011;29282;45.656;11.302;2023-07-29T00:21:01;0.45;;;0.45;;
33162;SDS011;29282;45.656;11.302;2023-07-29T00:23:29;0.77;;;0.60;;
33162;SDS011;29282;45.656;11.302;2023-07-29T00:25:55;0.70;;;0.70;;
33162;SDS011;29282;45.656;11.302;2023-07-29T00:28:20;4.00;;;0.75;;
33162;SDS011;29282;45.656;11.302;2023-07-29T00:30:46;5.82;;;0.77;;
33162;SDS011;29282;45.656;11.302;2023-07-29T00:33:11;3.42;;;0.90;;
33162;SDS011;29282;45.656;11.302;2023-07-29T00:35:37;1.70;;;0.80;;
33162;SDS011;29282;45.656;11.302;2023-07-29T00:38:06;1.55;;;0.80;;
33162;SDS011;29282;45.656;11.302;2023-07-29T00:40:35;4.00;;;0.82;;
33162;SDS011;29282;45.656;11.302;2023-07-29T00:43:02;1.52;;;0.85;;
33162;SDS011;29282;45.656;11.302;2023-07-29T00:45:27;1.60;;;0.90;;
33162;SDS011;29282;45.656;11.302;2023-07-29T00:47:54;1.45;;;0.80;;
33162;SDS011;29282;45.656;11.302;2023-07-29T00:50:20;1.00;;;0.85;;
33162;SDS011;29282;45.656;11.302;2023-07-29T00:52:46;1.85;;;0.77;;
33162;SDS011;29282;45.656;11.302;2023-07-29T00:55:15;2.85;;;0.88;;
33162;SDS011;29282;45.656;11.302;2023-07-29T00:57:41;1.17;;;0.82;;
33162;SDS011;29282;45.656;11.302;2023-07-29T01:00:07;0.90;;;0.65;;
33162;SDS011;29282;45.656;11.302;2023-07-29T01:02:34;3.22;;;0.68;;
33162;SDS011;29282;45.656;11.302;2023-07-29T01:05:00;0.75;;;0.75;;
33162;SDS011;29282;45.656;11.302;2023-07-29T01:07:33;0.73;;;0.73;;
33162;SDS011;29282;45.656;11.302;2023-07-29T01:11:01;2.45;;;0.85;;
33162;SDS011;29282;45.656;11.302;2023-07-29T01:13:17;1.03;;;0.80;;
33162;SDS011;29282;45.656;11.302;2023-07-29T01:15:55;3.90;;;0.98;;
33162;SDS011;29282;45.656;11.302;2023-07-29T01:18:30;0.75;;;0.75;;
33162;SDS011;29282;45.656;11.302;2023-07-29T01:20:58;0.70;;;0.70;;
33162;SDS011;29282;45.656;11.302;2023-07-29T01:23:25;1.20;;;0.80;;
33162;SDS011;29282;45.656;11.302;2023-07-29T01:25:54;0.80;;;0.80;;
33162;SDS011;29282;45.656;11.302;2023-07-29T01:28:20;0.80;;;0.73;;
33162;SDS011;29282;45.656;11.302;2023-07-29T01:30:46;0.73;;;0.73;;
33162;SDS011;29282;45.656;11.302;2023-07-29T01:33:18;1.30;;;1.00;;
33162;SDS011;29282;45.656;11.302;2023-07-29T01:35:50;0.80;;;0.80;;
33162;SDS011;29282;45.656;11.302;2023-07-29T01:38:20;1.17;;;1.08;;
33162;SDS011;29282;45.656;11.302;2023-07-29T01:41:08;1.30;;;0.95;;
33162;SDS011;29282;45.656;11.302;2023-07-29T01:43:34;1.05;;;0.93;;
33162;SDS011;29282;45.656;11.302;2023-07-29T01:46:07;2.88;;;1.20;;
33162;SDS011;29282;45.656;11.302;2023-07-29T01:48:37;1.25;;;0.82;;
33162;SDS011;29282;45.656;11.302;2023-07-29T01:51:03;3.97;;;0.98;;
33162;SDS011;29282;45.656;11.302;2023-07-29T01:53:29;1.08;;;0.85;;
33162;SDS011;29282;45.656;11.302;2023-07-29T01:55:55;1.00;;;0.90;;
33162;SDS011;29282;45.656;11.302;2023-07-29T01:58:22;0.88;;;0.77;;
33162;SDS011;29282;45.656;11.302;2023-07-29T02:00:47;2.05;;;1.25;;
33162;SDS011;29282;45.656;11.302;2023-07-29T02:03:13;2.08;;;1.10;;
33162;SDS011;29282;45.656;11.302;2023-07-29T02:05:39;1.08;;;0.98;;
33162;SDS011;29282;45.656;11.302;2023-07-29T02:08:04;1.83;;;1.08;;
33162;SDS011;29282;45.656;11.302;2023-07-29T02:10:30;2.38;;;0.98;;
33162;SDS011;29282;45.656;11.302;2023-07-29T02:12:55;0.82;;;0.82;;
33162;SDS011;29282;45.656;11.302;2023-07-29T02:15:21;1.08;;;0.98;;
33162;SDS011;29282;45.656;11.302;2023-07-29T02:17:46;1.38;;;1.00;;
33162;SDS011;29282;45.656;11.302;2023-07-29T02:20:12;1.20;;;1.10;;
33162;SDS011;29282;45.656;11.302;2023-07-29T02:22:37;1.10;;;1.00;;
33162;SDS011;29282;45.656;11.302;2023-07-29T02:25:03;1.05;;;1.02;;
33162;SDS011;29282;45.656;11.302;2023-07-29T02:27:28;0.90;;;0.90;;
33162;SDS011;29282;45.656;11.302;2023-07-29T02:29:54;2.80;;;1.00;;
33162;SDS011;29282;45.656;11.302;2023-07-29T02:32:20;0.90;;;0.90;;
33162;SDS011;29282;45.656;11.302;2023-07-29T02:34:46;1.15;;;1.00;;
33162;SDS011;29282;45.656;11.302;2023-07-29T02:37:11;1.48;;;1.20;;
33162;SDS011;29282;45.656;11.302;2023-07-29T02:39:37;2.58;;;1.02;;
33162;SDS011;29282;45.656;11.302;2023-07-29T02:42:02;1.50;;;1.10;;
33162;SDS011;29282;45.656;11.302;2023-07-29T02:44:28;1.50;;;1.20;;
33162;SDS011;29282;45.656;11.302;2023-07-29T02:46:54;0.93;;;0.93;;
33162;SDS011;29282;45.656;11.302;2023-07-29T02:49:21;1.25;;;1.10;;
33162;SDS011;29282;45.656;11.302;2023-07-29T02:51:49;3.28;;;1.13;;
33162;SDS011;29282;45.656;11.302;2023-07-29T02:54:17;1.13;;;1.02;;
33162;SDS011;29282;45.656;11.302;2023-07-29T02:56:43;1.10;;;1.00;;
33162;SDS011;29282;45.656;11.302;2023-07-29T02:59:08;1.42;;;1.05;;
33162;SDS011;29282;45.656;11.302;2023-07-29T03:01:34;1.52;;;1.27;;
33162;SDS011;29282;45.656;11.302;2023-07-29T03:03:59;1.70;;;1.20;;
33162;SDS011;29282;45.656;11.302;2023-07-29T03:06:25;1.63;;;1.20;;
33162;SDS011;29282;45.656;11.302;2023-07-29T03:08:50;1.35;;;1.10;;
33162;SDS011;29282;45.656;11.302;2023-07-29T03:11:16;1.30;;;1.15;;
33162;SDS011;29282;45.656;11.302;2023-07-29T03:13:42;1.23;;;1.10;;
33162;SDS011;29282;45.656;11.302;2023-07-29T03:16:08;1.23;;;1.15;;
33162;SDS011;29282;45.656;11.302;2023-07-29T03:18:34;1.38;;;1.25;;
33162;SDS011;29282;45.656;11.302;2023-07-29T03:21:00;1.30;;;1.20;;
33162;SDS011;29282;45.656;11.302;2023-07-29T03:23:27;2.10;;;1.42;;
33162;SDS011;29282;45.656;11.302;2023-07-29T03:26:09;1.40;;;1.10;;
33162;SDS011;29282;45.656;11.302;2023-07-29T03:28:40;1.50;;;1.40;;
33162;SDS011;29282;45.656;11.302;2023-07-29T03:31:07;1.70;;;1.25;;
33162;SDS011;29282;45.656;11.302;2023-07-29T03:33:33;1.48;;;1.33;;
33162;SDS011;29282;45.656;11.302;2023-07-29T03:35:59;1.50;;;1.30;;
33162;SDS011;29282;45.656;11.302;2023-07-29T03:38:24;1.35;;;1.00;;
33162;SDS011;29282;45.656;11.302;2023-07-29T03:40:50;2.08;;;1.58;;
33162;SDS011;29282;45.656;11.302;2023-07-29T03:43:16;1.48;;;1.15;;
33162;SDS011;29282;45.656;11.302;2023-07-29T03:45:41;1.50;;;1.20;;
33162;SDS011;29282;45.656;11.302;2023-07-29T03:48:07;1.20;;;1.10;;
33162;SDS011;29282;45.656;11.302;2023-07-29T03:50:33;1.63;;;1.20;;
33162;SDS011;29282;45.656;11.302;2023-07-29T03:53:01;1.42;;;1.33;;
33162;SDS011;29282;45.656;11.302;2023-07-29T03:55:27;2.30;;;1.50;;
33162;SDS011;29282;45.656;11.302;2023-07-29T03:57:55;1.40;;;1.20;;
33162;SDS011;29282;45.656;11.302;2023-07-29T04:00:27;1.65;;;1.50;;
33162;SDS011;29282;45.656;11.302;2023-07-29T04:02:53;1.27;;;1.10;;
33162;SDS011;29282;45.656;11.302;2023-07-29T04:05:18;1.92;;;1.30;;
33162;SDS011;29282;45.656;11.302;2023-07-29T04:07:44;2.42;;;1.40;;
33162;SDS011;29282;45.656;11.302;2023-07-29T04:10:10;1.52;;;1.30;;
33162;SDS011;29282;45.656;11.302;2023-07-29T04:12:36;1.65;;;1.40;;
33162;SDS011;29282;45.656;11.302;2023-07-29T04:15:02;1.55;;;1.30;;
33162;SDS011;29282;45.656;11.302;2023-07-29T04:17:28;1.20;;;1.00;;
33162;SDS011;29282;45.656;11.302;2023-07-29T04:19:54;1.20;;;1.10;;
33162;SDS011;29282;45.656;11.302;2023-07-29T04:22:19;1.65;;;1.20;;
33162;SDS011;29282;45.656;11.302;2023-07-29T04:24:45;1.73;;;1.40;;
33162;SDS011;29282;45.656;11.302;2023-07-29T04:27:11;2.28;;;1.40;;
33162;SDS011;29282;45.656;11.302;2023-07-29T04:29:36;2.22;;;1.40;;
33162;SDS011;29282;45.656;11.302;2023-07-29T04:32:05;1.60;;;1.50;;
33162;SDS011;29282;45.656;11.302;2023-07-29T04:34:30;1.35;;;1.25;;
33162;SDS011;29282;45.656;11.302;2023-07-29T04:36:56;1.65;;;1.40;;
33162;SDS011;29282;45.656;11.302;2023-07-29T04:39:22;1.83;;;1.45;;
33162;SDS011;29282;45.656;11.302;2023-07-29T04:41:47;1.67;;;1.30;;
33162;SDS011;29282;45.656;11.302;2023-07-29T04:44:13;1.15;;;1.10;;
33162;SDS011;29282;45.656;11.302;2023-07-29T04:46:38;1.45;;;1.35;;
33162;SDS011;29282;45.656;11.302;2023-07-29T04:49:04;2.38;;;1.33;;
33162;SDS011;29282;45.656;11.302;2023-07-29T04:51:29;1.33;;;1.23;;
33162;SDS011;29282;45.656;11.302;2023-07-29T04:53:59;1.58;;;1.30;;
33162;SDS011;29282;45.656;11.302;2023-07-29T04:56:25;1.48;;;1.27;;
33162;SDS011;29282;45.656;11.302;2023-07-29T04:58:51;2.33;;;1.40;;
33162;SDS011;29282;45.656;11.302;2023-07-29T05:01:17;2.15;;;1.30;;
33162;SDS011;29282;45.656;11.302;2023-07-29T05:03:42;1.25;;;1.15;;
33162;SDS011;29282;45.656;11.302;2023-07-29T05:06:08;1.65;;;1.40;;
33162;SDS011;29282;45.656;11.302;2023-07-29T05:08:34;1.75;;;1.20;;
33162;SDS011;29282;45.656;11.302;2023-07-29T05:10:59;1.75;;;1.30;;
33162;SDS011;29282;45.656;11.302;2023-07-29T05:13:25;1.48;;;1.30;;
33162;SDS011;29282;45.656;11.302;2023-07-29T05:15:50;2.30;;;1.38;;
33162;SDS011;29282;45.656;11.302;2023-07-29T05:18:16;1.58;;;1.48;;
33162;SDS011;29282;45.656;11.302;2023-07-29T05:20:42;1.30;;;1.20;;
33162;SDS011;29282;45.656;11.302;2023-07-29T05:23:08;2.15;;;1.45;;
33162;SDS011;29282;45.656;11.302;2023-07-29T05:25:34;1.50;;;1.40;;
33162;SDS011;29282;45.656;11.302;2023-07-29T05:28:00;1.88;;;1.35;;
33162;SDS011;29282;45.656;11.302;2023-07-29T05:30:26;1.52;;;1.42;;
33162;SDS011;29282;45.656;11.302;2023-07-29T05:32:55;1.50;;;1.40;;
33162;SDS011;29282;45.656;11.302;2023-07-29T05:35:21;1.55;;;1.30;;
33162;SDS011;29282;45.656;11.302;2023-07-29T05:37:47;1.40;;;1.30;;
33162;SDS011;29282;45.656;11.302;2023-07-29T05:40:12;1.45;;;1.35;;
33162;SDS011;29282;45.656;11.302;2023-07-29T05:42:38;1.33;;;1.23;;
33162;SDS011;29282;45.656;11.302;2023-07-29T05:45:03;1.58;;;1.48;;
33162;SDS011;29282;45.656;11.302;2023-07-29T05:47:29;2.00;;;1.73;;
33162;SDS011;29282;45.656;11.302;2023-07-29T05:49:55;2.05;;;1.55;;
33162;SDS011;29282;45.656;11.302;2023-07-29T05:52:20;1.70;;;1.60;;
33162;SDS011;29282;45.656;11.302;2023-07-29T05:54:48;1.55;;;1.45;;
33162;SDS011;29282;45.656;11.302;2023-07-29T05:57:14;1.98;;;1.50;;
33162;SDS011;29282;45.656;11.302;2023-07-29T05:59:39;1.52;;;1.42;;
33162;SDS011;29282;45.656;11.302;2023-07-29T06:02:05;1.85;;;1.35;;
33162;SDS011;29282;45.656;11.302;2023-07-29T06:04:31;1.27;;;1.17;;
33162;SDS011;29282;45.656;11.302;2023-07-29T06:06:56;1.85;;;1.67;;
33162;SDS011;29282;45.656;11.302;2023-07-29T06:09:23;1.80;;;1.42;;
33162;SDS011;29282;45.656;11.302;2023-07-29T06:11:50;1.48;;;1.33;;
33162;SDS011;29282;45.656;11.302;2023-07-29T06:14:16;2.65;;;1.63;;
33162;SDS011;29282;45.656;11.302;2023-07-29T06:16:41;2.42;;;1.63;;
33162;SDS011;29282;45.656;11.302;2023-07-29T06:19:07;1.50;;;1.40;;
33162;SDS011;29282;45.656;11.302;2023-07-29T06:21:34;1.50;;;1.40;;
33162;SDS011;29282;45.656;11.302;2023-07-29T06:23:59;1.42;;;1.33;;
33162;SDS011;29282;45.656;11.302;2023-07-29T06:26:25;1.50;;;1.40;;
33162;SDS011;29282;45.656;11.302;2023-07-29T06:28:50;1.85;;;1.40;;
33162;SDS011;29282;45.656;11.302;2023-07-29T06:31:16;1.55;;;1.45;;
33162;SDS011;29282;45.656;11.302;2023-07-29T06:33:41;1.35;;;1.25;;
33162;SDS011;29282;45.656;11.302;2023-07-29T06:36:07;1.58;;;1.48;;
33162;SDS011;29282;45.656;11.302;2023-07-29T06:38:33;1.58;;;1.25;;
33162;SDS011;29282;45.656;11.302;2023-07-29T06:40:58;1.67;;;1.58;;
33162;SDS011;29282;45.656;11.302;2023-07-29T06:43:24;1.92;;;1.70;;
33162;SDS011;29282;45.656;11.302;2023-07-29T06:45:49;1.65;;;1.55;;
33162;SDS011;29282;45.656;11.302;2023-07-29T06:48:14;1.50;;;1.38;;
33162;SDS011;29282;45.656;11.302;2023-07-29T06:50:40;1.75;;;1.65;;
33162;SDS011;29282;45.656;11.302;2023-07-29T06:53:06;1.67;;;1.58;;
33162;SDS011;29282;45.656;11.302;2023-07-29T06:55:31;1.60;;;1.50;;
33162;SDS011;29282;45.656;11.302;2023-07-29T06:57:57;2.33;;;1.88;;
33162;SDS011;29282;45.656;11.302;2023-07-29T07:00:22;1.63;;;1.52;;
33162;SDS011;29282;45.656;11.302;2023-07-29T07:02:48;1.60;;;1.50;;
33162;SDS011;29282;45.656;11.302;2023-07-29T07:05:13;1.60;;;1.50;;
33162;SDS011;29282;45.656;11.302;2023-07-29T07:07:42;1.60;;;1.50;;
33162;SDS011;29282;45.656;11.302;2023-07-29T07:10:07;1.50;;;1.40;;
33162;SDS011;29282;45.656;11.302;2023-07-29T07:12:33;1.65;;;1.55;;
33162;SDS011;29282;45.656;11.302;2023-07-29T07:14:59;2.42;;;1.40;;
33162;SDS011;29282;45.656;11.302;2023-07-29T07:17:25;1.60;;;1.50;;
33162;SDS011;29282;45.656;11.302;2023-07-29T07:19:50;1.48;;;1.38;;
33162;SDS011;29282;45.656;11.302;2023-07-29T07:22:16;1.92;;;1.80;;
33162;SDS011;29282;45.656;11.302;2023-07-29T07:24:42;2.00;;;1.80;;
33162;SDS011;29282;45.656;11.302;2023-07-29T07:27:07;1.80;;;1.70;;
33162;SDS011;29282;45.656;11.302;2023-07-29T07:29:33;1.60;;;1.50;;
33162;SDS011;29282;45.656;11.302;2023-07-29T07:31:58;1.55;;;1.38;;
33162;SDS011;29282;45.656;11.302;2023-07-29T07:34:24;1.88;;;1.55;;
33162;SDS011;29282;45.656;11.302;2023-07-29T07:36:49;1.70;;;1.60;;
33162;SDS011;29282;45.656;11.302;2023-07-29T07:39:15;1.50;;;1.40;;
33162;SDS011;29282;45.656;11.302;2023-07-29T07:41:41;1.40;;;1.30;;
33162;SDS011;29282;45.656;11.302;2023-07-29T07:44:07;1.50;;;1.40;;
33162;SDS011;29282;45.656;11.302;2023-07-29T07:46:33;1.60;;;1.50;;
33162;SDS011;29282;45.656;11.302;2023-07-29T07:48:59;1.23;;;1.13;;
33162;SDS011;29282;45.656;11.302;2023-07-29T07:51:24;1.48;;;1.35;;
33162;SDS011;29282;45.656;11.302;2023-07-29T07:53:50;1.65;;;1.48;;
33162;SDS011;29282;45.656;11.302;2023-07-29T07:56:15;1.90;;;1.75;;
33162;SDS011;29282;45.656;11.302;2023-07-29T07:58:41;1.73;;;1.63;;
33162;SDS011;29282;45.656;11.302;2023-07-29T08:01:07;1.52;;;1.42;;
33162;SDS011;29282;45.656;11.302;2023-07-29T08:03:34;1.70;;;1.60;;
33162;SDS011;29282;45.656;11.302;2023-07-29T08:06:00;1.80;;;1.60;;
33162;SDS011;29282;45.656;11.302;2023-07-29T08:08:26;2.25;;;1.60;;
33162;SDS011;29282;45.656;11.302;2023-07-29T08:10:56;1.70;;;1.50;;
33162;SDS011;29282;45.656;11.302;2023-07-29T08:13:22;1.92;;;1.67;;
33162;SDS011;29282;45.656;11.302;2023-07-29T08:15:49;1.75;;;1.60;;
33162;SDS011;29282;45.656;11.302;2023-07-29T08:18:16;1.60;;;1.50;;
33162;SDS011;29282;45.656;11.302;2023-07-29T08:20:54;1.73;;;1.58;;
33162;SDS011;29282;45.656;11.302;2023-07-29T08:23:23;1.73;;;1.40;;
33162;SDS011;29282;45.656;11.302;2023-07-29T08:25:53;1.90;;;1.70;;
33162;SDS011;29282;45.656;11.302;2023-07-29T08:28:21;1.77;;;1.67;;
33162;SDS011;29282;45.656;11.302;2023-07-29T08:30:52;1.50;;;1.40;;
33162;SDS011;29282;45.656;11.302;2023-07-29T08:33:18;1.83;;;1.50;;
33162;SDS011;29282;45.656;11.302;2023-07-29T08:35:43;1.35;;;1.25;;
33162;SDS011;29282;45.656;11.302;2023-07-29T08:38:09;1.77;;;1.67;;
33162;SDS011;29282;45.656;11.302;2023-07-29T08:40:34;1.60;;;1.50;;
33162;SDS011;29282;45.656;11.302;2023-07-29T08:43:03;1.50;;;1.40;;
33162;SDS011;29282;45.656;11.302;2023-07-29T08:45:34;1.60;;;1.50;;
33162;SDS011;29282;45.656;11.302;2023-07-29T08:48:05;1.40;;;1.30;;
33162;SDS011;29282;45.656;11.302;2023-07-29T08:50:36;1.40;;;1.30;;
33162;SDS011;29282;45.656;11.302;2023-07-29T08:53:05;1.88;;;1.50;;
33162;SDS011;29282;45.656;11.302;2023-07-29T08:55:32;1.83;;;1.73;;
33162;SDS011;29282;45.656;11.302;2023-07-29T08:57:59;1.70;;;1.60;;
33162;SDS011;29282;45.656;11.302;2023-07-29T09:00:25;1.70;;;1.60;;
33162;SDS011;29282;45.656;11.302;2023-07-29T09:02:52;1.60;;;1.50;;
33162;SDS011;29282;45.656;11.302;2023-07-29T09:05:18;1.77;;;1.63;;
33162;SDS011;29282;45.656;11.302;2023-07-29T09:07:45;1.73;;;1.35;;
33162;SDS011;29282;45.656;11.302;2023-07-29T09:10:15;1.70;;;1.60;;
33162;SDS011;29282;45.656;11.302;2023-07-29T09:12:40;2.75;;;1.40;;
33162;SDS011;29282;45.656;11.302;2023-07-29T09:15:06;1.90;;;1.80;;
33162;SDS011;29282;45.656;11.302;2023-07-29T09:17:32;1.92;;;1.40;;
33162;SDS011;29282;45.656;11.302;2023-07-29T09:19:58;12.68;;;2.55;;
33162;SDS011;29282;45.656;11.302;2023-07-29T09:22:24;6.97;;;2.00;;
33162;SDS011;29282;45.656;11.302;2023-07-29T09:24:52;11.23;;;2.10;;
33162;SDS011;29282;45.656;11.302;2023-07-29T09:27:28;5.25;;;1.90;;
33162;SDS011;29282;45.656;11.302;2023-07-29T09:29:57;4.97;;;2.00;;
33162;SDS011;29282;45.656;11.302;2023-07-29T09:32:23;5.93;;;1.80;;
33162;SDS011;29282;45.656;11.302;2023-07-29T09:34:50;7.72;;;1.95;;
33162;SDS011;29282;45.656;11.302;2023-07-29T09:37:25;6.03;;;1.77;;
33162;SDS011;29282;45.656;11.302;2023-07-29T09:39:51;3.45;;;1.92;;
33162;SDS011;29282;45.656;11.302;2023-07-29T09:42:17;4.07;;;1.75;;
33162;SDS011;29282;45.656;11.302;2023-07-29T09:44:44;4.32;;;1.70;;
33162;SDS011;29282;45.656;11.302;2023-07-29T09:47:09;4.80;;;1.80;;
33162;SDS011;29282;45.656;11.302;2023-07-29T09:49:44;4.82;;;2.03;;
33162;SDS011;29282;45.656;11.302;2023-07-29T09:52:09;6.78;;;1.83;;
33162;SDS011;29282;45.656;11.302;2023-07-29T09:54:36;3.63;;;1.80;;
33162;SDS011;29282;45.656;11.302;2023-07-29T09:57:02;4.38;;;1.60;;
33162;SDS011;29282;45.656;11.302;2023-07-29T09:59:27;6.93;;;1.77;;
33162;SDS011;29282;45.656;11.302;2023-07-29T10:01:53;2.85;;;1.63;;
33162;SDS011;29282;45.656;11.302;2023-07-29T10:04:19;5.15;;;2.05;;
33162;SDS011;29282;45.656;11.302;2023-07-29T10:06:45;2.00;;;1.70;;
33162;SDS011;29282;45.656;11.302;2023-07-29T10:09:11;3.63;;;1.88;;
33162;SDS011;29282;45.656;11.302;2023-07-29T10:11:37;5.22;;;2.35;;
33162;SDS011;29282;45.656;11.302;2023-07-29T10:14:04;4.55;;;1.92;;
33162;SDS011;29282;45.656;11.302;2023-07-29T10:16:30;3.53;;;1.55;;
33162;SDS011;29282;45.656;11.302;2023-07-29T10:18:56;3.45;;;1.70;;
33162;SDS011;29282;45.656;11.302;2023-07-29T10:21:22;2.40;;;1.80;;
33162;SDS011;29282;45.656;11.302;2023-07-29T10:23:48;4.00;;;1.60;;
33162;SDS011;29282;45.656;11.302;2023-07-29T10:26:19;3.47;;;2.00;;
33162;SDS011;29282;45.656;11.302;2023-07-29T10:28:46;1.80;;;1.60;;
33162;SDS011;29282;45.656;11.302;2023-07-29T10:31:16;2.97;;;1.85;;
33162;SDS011;29282;45.656;11.302;2023-07-29T10:33:42;2.42;;;1.65;;
33162;SDS011;29282;45.656;11.302;2023-07-29T10:36:11;2.80;;;1.85;;
33162;SDS011;29282;45.656;11.302;2023-07-29T10:38:37;2.60;;;1.77;;
33162;SDS011;29282;45.656;11.302;2023-07-29T10:41:03;3.40;;;1.50;;
33162;SDS011;29282;45.656;11.302;2023-07-29T10:43:32;8.13;;;2.97;;
33162;SDS011;29282;45.656;11.302;2023-07-29T10:46:15;11.57;;;3.15;;
33162;SDS011;29282;45.656;11.302;2023-07-29T10:48:43;5.93;;;2.78;;
33162;SDS011;29282;45.656;11.302;2023-07-29T10:53:47;9.40;;;3.70;;
33162;SDS011;29282;45.656;11.302;2023-07-29T10:56:12;5.70;;;3.50;;
33162;SDS011;29282;45.656;11.302;2023-07-29T10:58:42;7.22;;;3.30;;
33162;SDS011;29282;45.656;11.302;2023-07-29T11:01:20;11.70;;;3.97;;
33162;SDS011;29282;45.656;11.302;2023-07-29T11:07:02;6.40;;;3.97;;
33162;SDS011;29282;45.656;11.302;2023-07-29T11:15:02;6.05;;;4.10;;
33162;SDS011;29282;45.656;11.302;2023-07-29T11:17:29;5.85;;;4.03;;
33162;SDS011;29282;45.656;11.302;2023-07-29T11:19:59;6.03;;;4.00;;
33162;SDS011;29282;45.656;11.302;2023-07-29T11:22:25;5.72;;;4.65;;
33162;SDS011;29282;45.656;11.302;2023-07-29T11:24:51;8.13;;;4.53;;
33162;SDS011;29282;45.656;11.302;2023-07-29T11:27:16;9.35;;;4.60;;
33162;SDS011;29282;45.656;11.302;2023-07-29T11:29:42;8.73;;;4.32;;
33162;SDS011;29282;45.656;11.302;2023-07-29T11:32:09;11.65;;;4.38;;
33162;SDS011;29282;45.656;11.302;2023-07-29T11:34:35;6.53;;;5.03;;
33162;SDS011;29282;45.656;11.302;2023-07-29T11:37:00;7.43;;;4.75;;
33162;SDS011;29282;45.656;11.302;2023-07-29T11:39:26;5.28;;;4.25;;
33162;SDS011;29282;45.656;11.302;2023-07-29T11:41:51;6.85;;;4.20;;
33162;SDS011;29282;45.656;11.302;2023-07-29T11:44:17;9.38;;;4.72;;
33162;SDS011;29282;45.656;11.302;2023-07-29T11:46:46;6.57;;;4.57;;
33162;SDS011;29282;45.656;11.302;2023-07-29T11:49:14;8.73;;;4.30;;
33162;SDS011;29282;45.656;11.302;2023-07-29T11:51:42;9.77;;;4.40;;
33162;SDS011;29282;45.656;11.302;2023-07-29T11:54:09;5.20;;;4.03;;
33162;SDS011;29282;45.656;11.302;2023-07-29T11:56:38;9.05;;;4.43;;
33162;SDS011;29282;45.656;11.302;2023-07-29T11:59:05;8.48;;;3.90;;
33162;SDS011;29282;45.656;11.302;2023-07-29T12:01:33;8.05;;;4.13;;
33162;SDS011;29282;45.656;11.302;2023-07-29T12:04:01;6.07;;;4.13;;
33162;SDS011;29282;45.656;11.302;2023-07-29T12:06:28;7.30;;;4.55;;
33162;SDS011;29282;45.656;11.302;2023-07-29T12:08:56;8.40;;;4.10;;
33162;SDS011;29282;45.656;11.302;2023-07-29T12:11:25;7.13;;;3.53;;
33162;SDS011;29282;45.656;11.302;2023-07-29T12:13:54;7.65;;;3.80;;
33162;SDS011;29282;45.656;11.302;2023-07-29T12:16:20;6.03;;;3.65;;
33162;SDS011;29282;45.656;11.302;2023-07-29T12:18:46;7.68;;;3.70;;
33162;SDS011;29282;45.656;11.302;2023-07-29T12:21:14;5.78;;;3.50;;
33162;SDS011;29282;45.656;11.302;2023-07-29T12:23:45;7.13;;;4.13;;
33162;SDS011;29282;45.656;11.302;2023-07-29T12:26:11;4.75;;;3.70;;
33162;SDS011;29282;45.656;11.302;2023-07-29T12:28:37;5.57;;;3.60;;
33162;SDS011;29282;45.656;11.302;2023-07-29T12:31:09;3.58;;;3.15;;
33162;SDS011;29282;45.656;11.302;2023-07-29T12:33:36;4.40;;;3.55;;
33162;SDS011;29282;45.656;11.302;2023-07-29T12:36:07;5.45;;;3.58;;
33162;SDS011;29282;45.656;11.302;2023-07-29T12:38:33;5.90;;;3.58;;
33162;SDS011;29282;45.656;11.302;2023-07-29T12:41:01;4.72;;;3.08;;
33162;SDS011;29282;45.656;11.302;2023-07-29T12:43:29;5.07;;;3.70;;
33162;SDS011;29282;45.656;11.302;2023-07-29T12:45:57;5.60;;;3.35;;
33162;SDS011;29282;45.656;11.302;2023-07-29T12:48:23;3.78;;;3.40;;
33162;SDS011;29282;45.656;11.302;2023-07-29T12:50:48;6.32;;;3.47;;
33162;SDS011;29282;45.656;11.302;2023-07-29T12:53:14;6.18;;;3.67;;
33162;SDS011;29282;45.656;11.302;2023-07-29T12:55:39;6.68;;;3.28;;
33162;SDS011;29282;45.656;11.302;2023-07-29T12:58:05;4.07;;;3.40;;
33162;SDS011;29282;45.656;11.302;2023-07-29T13:00:30;3.58;;;3.17;;
33162;SDS011;29282;45.656;11.302;2023-07-29T13:02:56;4.03;;;3.53;;
33162;SDS011;29282;45.656;11.302;2023-07-29T13:05:21;4.05;;;3.30;;
33162;SDS011;29282;45.656;11.302;2023-07-29T13:07:49;4.30;;;3.60;;
33162;SDS011;29282;45.656;11.302;2023-07-29T13:10:18;4.18;;;3.20;;
33162;SDS011;29282;45.656;11.302;2023-07-29T13:12:43;3.42;;;3.10;;
33162;SDS011;29282;45.656;11.302;2023-07-29T13:15:09;4.70;;;3.50;;
33162;SDS011;29282;45.656;11.302;2023-07-29T13:17:35;5.53;;;3.33;;
33162;SDS011;29282;45.656;11.302;2023-07-29T13:20:00;3.20;;;2.90;;
33162;SDS011;29282;45.656;11.302;2023-07-29T13:22:26;3.65;;;3.10;;
33162;SDS011;29282;45.656;11.302;2023-07-29T13:24:51;4.10;;;3.13;;
33162;SDS011;29282;45.656;11.302;2023-07-29T13:27:17;3.67;;;3.30;;
33162;SDS011;29282;45.656;11.302;2023-07-29T13:29:42;4.07;;;3.30;;
33162;SDS011;29282;45.656;11.302;2023-07-29T13:32:09;5.60;;;3.38;;
33162;SDS011;29282;45.656;11.302;2023-07-29T13:34:34;4.30;;;3.17;;
33162;SDS011;29282;45.656;11.302;2023-07-29T13:37:00;4.05;;;3.22;;
33162;SDS011;29282;45.656;11.302;2023-07-29T13:39:25;3.33;;;3.00;;
33162;SDS011;29282;45.656;11.302;2023-07-29T13:41:51;5.10;;;3.15;;
33162;SDS011;29282;45.656;11.302;2023-07-29T13:44:16;4.47;;;2.95;;
33162;SDS011;29282;45.656;11.302;2023-07-29T13:46:42;4.70;;;2.92;;
33162;SDS011;29282;45.656;11.302;2023-07-29T13:49:07;4.50;;;3.13;;
33162;SDS011;29282;45.656;11.302;2023-07-29T13:51:33;3.75;;;3.05;;
33162;SDS011;29282;45.656;11.302;2023-07-29T13:53:58;3.45;;;2.95;;
33162;SDS011;29282;45.656;11.302;2023-07-29T13:56:23;5.75;;;3.47;;
33162;SDS011;29282;45.656;11.302;2023-07-29T13:58:49;4.50;;;3.30;;
33162;SDS011;29282;45.656;11.302;2023-07-29T14:01:15;4.15;;;3.53;;
33162;SDS011;29282;45.656;11.302;2023-07-29T14:03:43;3.20;;;2.90;;
33162;SDS011;29282;45.656;11.302;2023-07-29T14:06:09;6.00;;;3.58;;
33162;SDS011;29282;45.656;11.302;2023-07-29T14:08:34;3.70;;;3.30;;
33162;SDS011;29282;45.656;11.302;2023-07-29T14:11:00;3.40;;;3.03;;
33162;SDS011;29282;45.656;11.302;2023-07-29T14:13:26;3.55;;;3.25;;
33162;SDS011;29282;45.656;11.302;2023-07-29T14:15:51;4.43;;;3.38;;
33162;SDS011;29282;45.656;11.302;2023-07-29T14:18:17;3.78;;;2.90;;
33162;SDS011;29282;45.656;11.302;2023-07-29T14:20:42;6.85;;;3.40;;
33162;SDS011;29282;45.656;11.302;2023-07-29T14:23:08;3.88;;;3.00;;
33162;SDS011;29282;45.656;11.302;2023-07-29T14:25:33;7.00;;;3.15;;
33162;SDS011;29282;45.656;11.302;2023-07-29T14:27:59;4.40;;;3.15;;
33162;SDS011;29282;45.656;11.302;2023-07-29T14:30:25;4.05;;;3.30;;
33162;SDS011;29282;45.656;11.302;2023-07-29T14:32:50;4.00;;;3.13;;
33162;SDS011;29282;45.656;11.302;2023-07-29T14:35:16;3.35;;;3.00;;
33162;SDS011;29282;45.656;11.302;2023-07-29T14:37:41;3.97;;;3.22;;
33162;SDS011;29282;45.656;11.302;2023-07-29T14:40:07;3.45;;;2.83;;
33162;SDS011;29282;45.656;11.302;2023-07-29T14:42:32;3.45;;;2.83;;